Time;durP1;ratioP1;P1;durP2;ratioP2;P2;SDS_P1;SDS_P2;PMS_P1;PMS_P2;Temp;Humidity;BMP_temperature;BMP_pressure;BME280_temperature;BME280_humidity;BME280_pressure;Samples;Min_cycle;Max_cycle;Signal;HPM_P1;HPM_P2
2022/05/18 00:00:15;;;;;;;12.37;6.23;;;23.20;1.00;;;;;;5073282;28;20218;-82
2022/05/18 00:02:41;;;;;;;7.80;5.63;;;23.20;99.90;;;;;;5075119;28;20199;-83
2022/05/18 00:05:08;;;;;;;10.10;4.93;;;23.20;99.90;;;;;;5075103;28;20168;-80
2022/05/18 00:07:33;;;;;;;9.40;5.10;;;23.20;1.00;;;;;;5074626;28;20198;-80
2022/05/18 00:10:00;;;;;;;8.77;4.97;;;23.10;99.90;;;;;;5074599;28;20625;-84
2022/05/18 00:12:26;;;;;;;8.40;4.87;;;23.10;1.00;;;;;;5074760;28;20176;-80
2022/05/18 00:14:53;;;;;;;8.17;4.53;;;23.10;1.00;;;;;;5074409;28;20215;-81
2022/05/18 00:17:18;;;;;;;8.13;4.20;;;23.00;99.90;;;;;;5076870;28;20173;-80
2022/05/18 00:19:44;;;;;;;9.07;4.40;;;23.00;99.90;;;;;;5074950;28;20632;-81
2022/05/18 00:22:10;;;;;;;7.60;3.90;;;23.00;99.90;;;;;;5075493;28;20236;-80
2022/05/18 00:24:36;;;;;;;8.30;3.77;;;23.00;1.00;;;;;;5075045;28;20194;-85
2022/05/18 00:27:03;;;;;;;7.33;3.40;;;23.10;94.10;;;;;;5075128;28;20177;-82
2022/05/18 00:29:30;;;;;;;10.13;4.10;;;23.10;99.90;;;;;;5094228;28;20176;-83
2022/05/18 00:31:56;;;;;;;8.87;3.90;;;23.20;1.00;;;;;;5092708;28;20271;-81
2022/05/18 00:34:21;;;;;;;6.63;3.23;;;23.30;99.90;;;;;;5076112;28;20272;-80
2022/05/18 00:36:47;;;;;;;6.90;2.73;;;23.30;1.00;;;;;;5075403;28;20188;-81
2022/05/18 00:39:16;;;;;;;6.87;3.00;;;23.30;99.90;;;;;;5072895;28;20635;-82
2022/05/18 00:41:42;;;;;;;5.43;2.63;;;23.30;1.00;;;;;;5074580;28;20255;-84
2022/05/18 00:44:07;;;;;;;6.60;2.47;;;23.20;99.90;;;;;;5076235;28;20196;-84
2022/05/18 00:46:33;;;;;;;6.67;2.50;;;23.40;99.90;;;;;;5076294;28;20193;-83
2022/05/18 00:49:03;;;;;;;7.07;3.07;;;23.40;1.00;;;;;;5063526;28;20182;-84
2022/05/18 00:51:36;;;;;;;6.77;2.17;;;23.50;1.00;;;;;;5056223;28;20172;-85
2022/05/18 00:54:10;;;;;;;6.23;3.00;;;23.50;1.00;;;;;;5074571;28;20240;-83
2022/05/18 00:56:42;;;;;;;7.40;2.50;;;23.40;99.90;;;;;;5077366;28;20306;-83
2022/05/18 00:59:29;;;;;;;7.13;2.70;;;23.40;99.90;;;;;;5063965;28;20173;-84
2022/05/18 01:01:58;;;;;;;5.90;2.47;;;23.20;99.90;;;;;;5059195;28;20252;-84
2022/05/18 01:04:30;;;;;;;7.07;2.60;;;23.10;99.90;;;;;;5055730;28;20165;-83
2022/05/18 01:07:17;;;;;;;6.27;2.40;;;23.20;99.90;;;;;;5052895;28;20215;-83
2022/05/18 01:09:46;;;;;;;8.00;2.50;;;23.40;99.90;;;;;;5053857;28;20161;-83
2022/05/18 01:12:16;;;;;;;6.27;2.23;;;23.50;70.90;;;;;;5053785;28;20165;-82
2022/05/18 01:14:44;;;;;;;5.00;2.23;;;23.60;1.00;;;;;;5053480;28;20281;-83
2022/05/18 01:17:12;;;;;;;4.93;2.40;;;23.60;65.10;;;;;;5053601;28;20168;-83
2022/05/18 01:19:46;;;;;;;4.83;2.20;;;23.80;56.40;;;;;;5069260;28;20666;-84
2022/05/18 01:22:45;;;;;;;5.17;2.70;;;23.90;61.10;;;;;;5073733;28;20210;-81
2022/05/18 01:25:45;;;;;;;4.60;2.20;;;23.90;99.90;;;;;;5072967;28;20243;-84
2022/05/18 01:28:11;;;;;;;5.73;3.17;;;23.80;99.90;;;;;;5072408;28;20174;-83
2022/05/18 01:30:42;;;;;;;6.23;2.60;;;23.50;1.00;;;;;;5073637;28;20365;-82
2022/05/18 01:33:10;;;;;;;5.30;2.90;;;23.10;99.90;;;;;;5073730;28;20254;-84
2022/05/18 01:35:41;;;;;;;8.17;2.97;;;22.90;1.00;;;;;;5073124;28;20209;-80
2022/05/18 01:38:07;;;;;;;7.50;2.63;;;22.60;1.00;;;;;;5072138;28;20179;-81
2022/05/18 01:40:45;;;;;;;5.73;2.30;;;22.30;99.90;;;;;;5073482;28;20162;-80
2022/05/18 01:43:24;;;;;;;8.80;2.80;;;22.10;99.90;;;;;;5073132;28;20582;-80
2022/05/18 01:45:55;;;;;;;6.07;2.53;;;22.10;92.80;;;;;;5073046;28;20174;-82
2022/05/18 01:48:24;;;;;;;5.17;2.53;;;22.20;86.60;;;;;;5079843;28;20169;-82
2022/05/18 01:50:51;;;;;;;8.00;2.50;;;22.20;1.00;;;;;;5083457;28;20224;-83
2022/05/18 01:53:17;;;;;;;6.73;2.77;;;22.10;99.90;;;;;;5087267;28;20217;-82
2022/05/18 01:55:44;;;;;;;6.70;3.10;;;22.10;1.00;;;;;;5079692;28;20747;-82
2022/05/18 01:58:11;;;;;;;5.83;2.43;;;22.10;1.00;;;;;;5077910;28;20181;-84
2022/05/18 02:00:38;;;;;;;6.13;3.00;;;22.10;99.90;;;;;;5077008;28;20167;-81
2022/05/18 02:03:04;;;;;;;6.97;3.10;;;22.10;1.00;;;;;;5076316;28;20314;-79
2022/05/18 02:05:30;;;;;;;9.03;3.10;;;22.20;1.00;;;;;;5075498;28;20205;-83
2022/05/18 02:07:57;;;;;;;6.67;3.30;;;22.30;99.90;;;;;;5076658;28;20643;-83
2022/05/18 02:10:24;;;;;;;6.87;3.00;;;22.20;1.00;;;;;;5075594;28;20269;-79
2022/05/18 02:12:51;;;;;;;7.60;3.03;;;22.20;1.00;;;;;;5076564;28;20322;-81
2022/05/18 02:15:17;;;;;;;5.73;3.07;;;22.20;34.60;;;;;;5075576;28;20247;-82
2022/05/18 02:17:43;;;;;;;5.70;3.13;;;22.20;1.00;;;;;;5075985;28;20663;-80
2022/05/18 02:20:10;;;;;;;5.57;3.10;;;22.10;99.90;;;;;;5076347;28;20192;-79
2022/05/18 02:22:36;;;;;;;8.73;3.20;;;22.00;99.90;;;;;;5077025;28;20188;-84
2022/05/18 02:25:02;;;;;;;9.13;3.27;;;22.10;99.90;;;;;;5076114;28;20211;-83
2022/05/18 02:27:29;;;;;;;7.13;3.03;;;22.00;1.00;;;;;;5077122;28;20225;-80
2022/05/18 02:29:55;;;;;;;8.83;3.07;;;21.90;1.00;;;;;;5076623;28;20172;-84
2022/05/18 02:32:21;;;;;;;9.57;3.20;;;21.90;1.00;;;;;;5076507;28;20255;-79
2022/05/18 02:34:47;;;;;;;8.07;3.33;;;21.90;98.00;;;;;;5076272;28;20193;-83
2022/05/18 02:37:12;;;;;;;6.03;3.30;;;21.90;1.00;;;;;;5076556;28;20170;-81
2022/05/18 02:39:38;;;;;;;6.50;2.87;;;21.80;23.20;;;;;;5076063;28;20657;-81
2022/05/18 02:42:05;;;;;;;8.73;3.63;;;21.90;99.90;;;;;;5075310;28;20167;-81
2022/05/18 02:44:33;;;;;;;10.03;3.43;;;21.90;99.90;;;;;;5076990;28;20163;-84
2022/05/18 02:46:59;;;;;;;6.80;3.57;;;21.90;99.90;;;;;;5076150;28;20274;-85
2022/05/18 02:49:27;;;;;;;5.70;3.10;;;21.90;1.00;;;;;;5075316;28;20183;-81
2022/05/18 02:51:53;;;;;;;9.17;3.20;;;21.90;1.00;;;;;;5076223;28;20519;-79
2022/05/18 02:57:04;;;;;;;8.67;3.50;;;22.00;1.00;;;;;;5075859;28;20368;-78
2022/05/18 02:59:30;;;;;;;9.83;3.20;;;21.90;99.90;;;;;;5073570;28;20186;-80
2022/05/18 03:01:55;;;;;;;8.90;3.37;;;21.90;99.90;;;;;;5075558;28;20545;-81
2022/05/18 03:04:22;;;;;;;7.20;3.43;;;22.00;99.90;;;;;;5076028;28;20307;-79
2022/05/18 03:06:48;;;;;;;10.30;3.40;;;21.90;99.90;;;;;;5075508;28;20176;-79
2022/05/18 03:09:14;;;;;;;8.13;3.23;;;22.00;99.90;;;;;;5078320;28;20202;-80
2022/05/18 03:11:40;;;;;;;9.93;3.17;;;22.10;99.90;;;;;;5079870;28;20606;-83
2022/05/18 03:14:06;;;;;;;10.67;3.27;;;22.10;1.00;;;;;;5091385;28;20154;-81
2022/05/18 03:16:32;;;;;;;7.43;3.23;;;22.10;1.00;;;;;;5099788;28;20226;-80
2022/05/18 03:18:58;;;;;;;7.80;3.40;;;22.10;1.00;;;;;;5100326;28;20164;-79
2022/05/18 03:24:10;;;;;;;8.33;3.20;;;22.10;99.90;;;;;;5100395;28;20168;-80
2022/05/18 03:26:37;;;;;;;6.67;3.27;;;22.20;1.00;;;;;;5100286;28;20257;-77
2022/05/18 03:29:03;;;;;;;7.87;3.27;;;22.10;1.00;;;;;;5096185;28;20264;-79
2022/05/18 03:31:51;;;;;;;7.07;3.50;;;22.20;1.00;;;;;;5080906;28;20187;-79
2022/05/18 03:34:37;;;;;;;10.57;3.33;;;22.20;1.00;;;;;;5080243;28;20162;-80
2022/05/18 03:37:03;;;;;;;9.57;3.57;;;22.20;57.30;;;;;;5078021;28;20541;-84
2022/05/18 03:39:29;;;;;;;8.53;3.23;;;22.30;1.00;;;;;;5076342;28;20175;-83
2022/05/18 03:42:20;;;;;;;9.87;3.30;;;22.30;1.00;;;;;;5080020;28;20164;-83
2022/05/18 03:44:46;;;;;;;7.53;3.00;;;22.10;99.90;;;;;;5078341;28;20635;-83
2022/05/18 03:47:12;;;;;;;9.90;3.63;;;22.20;99.90;;;;;;5081415;28;20232;-83
2022/05/18 03:49:37;;;;;;;11.90;3.90;;;22.10;99.90;;;;;;5069490;28;20179;-84
2022/05/18 03:52:03;;;;;;;9.83;3.33;;;22.20;99.90;;;;;;5059996;28;20167;-80
2022/05/18 03:54:31;;;;;;;9.93;3.20;;;22.20;1.00;;;;;;5059383;28;20210;-79
2022/05/18 03:56:57;;;;;;;11.70;3.70;;;22.20;1.00;;;;;;5043598;28;20199;-80
2022/05/18 03:59:22;;;;;;;8.73;3.03;;;22.20;1.00;;;;;;5057944;28;20175;-80
2022/05/18 04:01:48;;;;;;;10.50;3.50;;;22.30;1.00;;;;;;5058019;28;20270;-82
2022/05/18 04:04:14;;;;;;;8.50;3.67;;;22.30;1.00;;;;;;5057993;28;20203;-81
2022/05/18 04:06:39;;;;;;;8.83;3.73;;;22.30;1.00;;;;;;5056384;28;20186;-80
2022/05/18 04:09:10;;;;;;;7.43;3.43;;;22.30;1.00;;;;;;5056426;28;20166;-82
2022/05/18 04:11:38;;;;;;;11.63;3.37;;;22.20;1.00;;;;;;5057241;28;20235;-83
2022/05/18 04:14:07;;;;;;;10.73;3.27;;;22.40;1.00;;;;;;5058547;28;20197;-84
2022/05/18 04:16:34;;;;;;;12.50;3.77;;;22.50;1.00;;;;;;5059894;28;20739;-81
2022/05/18 04:19:00;;;;;;;11.03;3.50;;;22.50;1.00;;;;;;5057848;28;20174;-82
2022/05/18 04:21:28;;;;;;;9.03;3.80;;;22.40;1.00;;;;;;5074259;28;20736;-81
2022/05/18 04:23:55;;;;;;;9.60;3.70;;;22.30;1.00;;;;;;5077154;28;20181;-81
2022/05/18 04:26:21;;;;;;;12.67;3.47;;;22.10;99.90;;;;;;5079264;28;20161;-84
2022/05/18 04:28:52;;;;;;;7.43;3.50;;;22.10;99.90;;;;;;5079852;28;20573;-82
2022/05/18 04:31:18;;;;;;;5.73;3.30;;;22.00;99.90;;;;;;5072278;28;20556;-79
2022/05/18 04:33:44;;;;;;;6.30;3.20;;;22.00;99.90;;;;;;5072420;28;20169;-81
2022/05/18 04:39:42;;;;;;;7.63;3.17;;;21.80;99.90;;;;;;5074690;28;20179;-78
2022/05/18 04:42:08;;;;;;;6.77;3.23;;;21.50;1.00;;;;;;5074360;28;20232;-84
2022/05/18 04:44:34;;;;;;;6.03;2.80;;;21.50;1.00;;;;;;5074592;28;20259;-82
2022/05/18 04:47:00;;;;;;;6.97;3.07;;;21.40;1.00;;;;;;5074621;28;20203;-82
2022/05/18 04:49:26;;;;;;;7.43;3.23;;;21.50;1.00;;;;;;5073717;28;20262;-85
2022/05/18 04:51:52;;;;;;;8.00;3.00;;;21.50;1.00;;;;;;5073457;28;20264;-80
2022/05/18 04:54:18;;;;;;;5.30;2.60;;;21.50;1.00;;;;;;5073982;28;20199;-82
2022/05/18 04:56:43;;;;;;;7.43;3.33;;;21.50;1.00;;;;;;5074132;28;20179;-84
2022/05/18 04:59:10;;;;;;;9.23;3.07;;;21.70;1.00;;;;;;5073903;28;20174;-83
2022/05/18 05:01:35;;;;;;;10.00;3.27;;;21.70;1.00;;;;;;5073357;28;20172;-83
2022/05/18 05:04:09;;;;;;;7.33;2.83;;;21.70;1.00;;;;;;5074189;28;20196;-84
2022/05/18 05:06:35;;;;;;;6.40;2.87;;;21.80;1.00;;;;;;5076344;28;20173;-80
2022/05/18 05:09:01;;;;;;;5.17;2.90;;;21.90;1.00;;;;;;5072837;28;20170;-80
2022/05/18 05:11:27;;;;;;;5.13;2.90;;;21.90;1.00;;;;;;5074400;28;20563;-82
2022/05/18 05:13:52;;;;;;;6.10;2.87;;;21.80;1.00;;;;;;5074201;28;20595;-82
2022/05/18 05:16:18;;;;;;;7.47;3.43;;;21.70;1.00;;;;;;5075959;28;20208;-84
2022/05/18 05:18:44;;;;;;;5.97;2.77;;;21.80;1.00;;;;;;5074653;28;20173;-82
2022/05/18 05:21:10;;;;;;;6.80;3.03;;;21.80;1.00;;;;;;5074006;28;20174;-80
2022/05/18 05:23:36;;;;;;;5.03;2.73;;;22.10;1.00;;;;;;5074691;28;20218;-80
2022/05/18 05:26:03;;;;;;;6.07;3.07;;;22.00;1.00;;;;;;5076726;28;20164;-79
2022/05/18 05:28:30;;;;;;;6.33;3.03;;;21.70;1.00;;;;;;5075240;28;20179;-80
2022/05/18 05:31:01;;;;;;;5.50;2.80;;;21.70;1.00;;;;;;5071973;28;20200;-80
2022/05/18 05:33:27;;;;;;;8.03;3.20;;;21.60;1.00;;;;;;5073413;28;20166;-81
2022/05/18 05:35:52;;;;;;;7.47;3.33;;;21.50;1.00;;;;;;5072388;28;20307;-82
2022/05/18 05:38:18;;;;;;;6.70;3.10;;;21.50;1.00;;;;;;5073889;28;20532;-81
2022/05/18 05:40:44;;;;;;;5.80;2.77;;;21.50;1.00;;;;;;5059287;28;20199;-81
2022/05/18 05:43:11;;;;;;;4.93;3.13;;;21.60;1.00;;;;;;5067124;28;20179;-87
2022/05/18 05:45:38;;;;;;;6.80;3.40;;;21.60;1.00;;;;;;5056871;28;20185;-81
2022/05/18 05:48:05;;;;;;;7.47;3.17;;;21.60;1.00;;;;;;5070228;28;20164;-83
2022/05/18 05:50:33;;;;;;;6.70;3.53;;;21.70;1.00;;;;;;5061213;28;20172;-84
2022/05/18 05:53:00;;;;;;;4.90;2.93;;;21.70;1.00;;;;;;5057537;28;20197;-87
2022/05/18 05:55:28;;;;;;;6.33;3.03;;;21.90;1.00;;;;;;5061421;28;20204;-84
2022/05/18 05:57:54;;;;;;;4.23;3.07;;;21.90;1.00;;;;;;5073394;28;20173;-82
2022/05/18 06:00:24;;;;;;;5.83;3.30;;;21.80;1.00;;;;;;5072219;28;20180;-84
2022/05/18 06:02:50;;;;;;;7.20;3.80;;;21.90;1.00;;;;;;5075240;28;20180;-85
2022/05/18 06:05:18;;;;;;;7.30;3.67;;;21.70;1.00;;;;;;5077154;28;20195;-81
2022/05/18 06:07:55;;;;;;;5.80;3.83;;;21.80;1.00;;;;;;5078045;28;20161;-85
2022/05/18 06:10:21;;;;;;;6.80;3.60;;;21.60;1.00;;;;;;5059754;28;20184;-82
2022/05/18 06:12:47;;;;;;;6.07;3.80;;;21.60;1.00;;;;;;5070618;28;20262;-84
2022/05/18 06:15:14;;;;;;;5.47;3.60;;;21.40;1.00;;;;;;5072494;28;20209;-83
2022/05/18 06:17:40;;;;;;;6.43;4.20;;;21.30;1.00;;;;;;5073695;28;20172;-81
2022/05/18 06:20:07;;;;;;;6.20;3.97;;;21.30;1.00;;;;;;5075086;28;20636;-80
2022/05/18 06:22:32;;;;;;;7.50;4.00;;;21.30;1.00;;;;;;5075034;28;20633;-81
2022/05/18 06:24:58;;;;;;;7.50;4.17;;;21.40;1.00;;;;;;5075704;28;20211;-81
2022/05/18 06:27:24;;;;;;;6.67;4.37;;;21.40;1.00;;;;;;5070880;28;20181;-79
2022/05/18 06:29:50;;;;;;;12.47;5.27;;;21.30;1.00;;;;;;5084177;28;20205;-80
2022/05/18 06:32:16;;;;;;;9.10;4.60;;;21.30;1.00;;;;;;5077801;28;20175;-85
2022/05/18 06:34:44;;;;;;;7.60;4.27;;;21.30;1.00;;;;;;5060316;28;20204;-83
2022/05/18 06:37:11;;;;;;;7.60;4.43;;;21.40;1.00;;;;;;5067838;28;20190;-83
2022/05/18 06:39:37;;;;;;;5.83;3.73;;;21.40;1.00;;;;;;5065242;28;20546;-84
2022/05/18 06:42:03;;;;;;;6.50;3.43;;;21.60;1.00;;;;;;5076012;28;20251;-82
2022/05/18 06:44:29;;;;;;;8.07;4.07;;;21.50;1.00;;;;;;5097074;28;20189;-83
2022/05/18 06:46:59;;;;;;;6.50;3.73;;;21.40;1.00;;;;;;5071808;28;20737;-84
2022/05/18 06:49:26;;;;;;;6.07;3.00;;;21.40;1.00;;;;;;5072060;28;20233;-84
2022/05/18 06:51:52;;;;;;;4.17;3.00;;;21.40;1.00;;;;;;5069424;28;20210;-81
2022/05/18 06:54:18;;;;;;;6.93;3.20;;;21.40;1.00;;;;;;5058025;28;20238;-85
2022/05/18 06:56:44;;;;;;;5.77;3.60;;;21.50;1.00;;;;;;5064781;28;20212;-81
2022/05/18 06:59:12;;;;;;;4.87;2.67;;;21.60;1.00;;;;;;5064396;28;20204;-82
2022/05/18 07:01:38;;;;;;;4.63;2.73;;;21.60;1.00;;;;;;5064951;28;20169;-80
2022/05/18 07:04:05;;;;;;;6.53;2.70;;;21.70;1.00;;;;;;5066006;28;20189;-84
2022/05/18 07:06:34;;;;;;;4.87;2.50;;;21.70;1.00;;;;;;5067602;28;20259;-86
2022/05/18 07:09:00;;;;;;;5.77;2.90;;;21.60;1.00;;;;;;5067279;28;20188;-81
2022/05/18 07:11:27;;;;;;;5.77;2.27;;;21.60;1.00;;;;;;5072336;28;20593;-84
2022/05/18 07:13:54;;;;;;;6.23;2.00;;;21.60;1.00;;;;;;5092731;28;20247;-82
2022/05/18 07:16:29;;;;;;;4.30;2.30;;;21.80;1.00;;;;;;5070712;28;20213;-85
2022/05/18 07:18:55;;;;;;;4.27;2.17;;;21.70;1.00;;;;;;5078062;28;20168;-85
2022/05/18 07:21:23;;;;;;;4.63;2.50;;;21.80;1.00;;;;;;5095047;28;20179;-79
2022/05/18 07:23:50;;;;;;;4.63;2.17;;;21.80;1.00;;;;;;5083319;28;20200;-83
2022/05/18 07:26:17;;;;;;;5.80;2.20;;;21.90;1.00;;;;;;5073251;28;20174;-80
2022/05/18 07:28:44;;;;;;;6.40;2.57;;;22.00;1.00;;;;;;5071345;28;20193;-80
2022/05/18 07:31:11;;;;;;;5.43;2.50;;;22.10;1.00;;;;;;5072377;28;20197;-83
2022/05/18 07:33:37;;;;;;;5.50;2.27;;;22.20;1.00;;;;;;5073224;28;20184;-85
2022/05/18 07:36:05;;;;;;;4.30;1.90;;;22.20;1.00;;;;;;5083056;28;20216;-78
2022/05/18 07:38:32;;;;;;;4.67;2.53;;;22.10;1.00;;;;;;5077847;28;20252;-80
2022/05/18 07:41:01;;;;;;;5.77;2.40;;;22.00;1.00;;;;;;5074286;28;20177;-79
2022/05/18 07:43:33;;;;;;;5.27;1.90;;;22.10;1.00;;;;;;5073962;28;20164;-82
2022/05/18 07:46:09;;;;;;;4.13;1.77;;;22.00;1.00;;;;;;5070817;28;20699;-84
2022/05/18 07:48:42;;;;;;;3.03;1.70;;;21.90;1.00;;;;;;5066572;28;20182;-86
2022/05/18 07:51:11;;;;;;;6.40;2.50;;;21.90;1.00;;;;;;5066136;28;20196;-84
2022/05/18 07:53:43;;;;;;;3.87;1.40;;;22.00;1.00;;;;;;5066107;28;20162;-84
2022/05/18 07:56:29;;;;;;;3.10;1.33;;;22.20;99.90;;;;;;5063716;28;20202;-84
2022/05/18 07:58:58;;;;;;;4.17;1.43;;;22.20;1.00;;;;;;5061351;28;20189;-81
2022/05/18 08:01:28;;;;;;;3.87;1.40;;;22.00;1.00;;;;;;5080820;28;20200;-77
2022/05/18 08:03:57;;;;;;;4.20;1.83;;;22.00;14.80;;;;;;5071576;28;20272;-79
2022/05/18 08:06:26;;;;;;;3.40;1.30;;;22.10;1.00;;;;;;5084555;28;20173;-85
2022/05/18 08:08:55;;;;;;;2.67;1.50;;;22.30;1.00;;;;;;5083864;28;20178;-91
2022/05/18 08:16:55;;;;;;;4.13;1.40;;;22.50;99.90;;;;;;5058698;28;20189;-79
2022/05/18 08:19:22;;;;;;;3.80;1.50;;;22.60;99.90;;;;;;5058355;28;20532;-85
2022/05/18 08:21:48;;;;;;;5.37;1.47;;;22.60;1.00;;;;;;5061088;28;20190;-86
2022/05/18 08:24:14;;;;;;;2.70;1.00;;;22.70;1.00;;;;;;5074473;28;20177;-88
2022/05/18 08:26:43;;;;;;;3.83;1.43;;;22.80;99.90;;;;;;5078891;28;20204;-84
2022/05/18 08:29:10;;;;;;;1.77;0.80;;;22.50;1.00;;;;;;5065501;28;20269;-87
2022/05/18 08:31:35;;;;;;;1.60;1.03;;;22.40;51.20;;;;;;5082308;28;20225;-80
2022/05/18 08:34:02;;;;;;;1.83;1.00;;;22.50;99.90;;;;;;5099533;28;20173;-85
2022/05/18 08:36:27;;;;;;;2.70;1.20;;;22.50;1.00;;;;;;5107680;28;20235;-78
2022/05/18 08:38:55;;;;;;;3.50;0.90;;;22.70;1.00;;;;;;5079070;28;20170;-81
2022/05/18 08:41:42;;;;;;;2.17;0.90;;;22.80;23.70;;;;;;5068582;28;20200;-80
2022/05/18 08:44:09;;;;;;;1.33;0.80;;;22.70;99.90;;;;;;5065270;28;20173;-85
2022/05/18 08:46:52;;;;;;;1.77;1.23;;;22.80;99.90;;;;;;5060213;28;20166;-89
2022/05/18 08:49:39;;;;;;;2.83;0.90;;;22.80;99.90;;;;;;5079749;28;20230;-87
2022/05/18 08:52:33;;;;;;;1.93;0.90;;;22.80;99.90;;;;;;5075936;28;20566;-86
2022/05/18 08:55:17;;;;;;;1.83;0.90;;;22.70;99.90;;;;;;5078403;28;20210;-83
2022/05/18 08:57:46;;;;;;;2.10;1.03;;;22.70;99.90;;;;;;5075913;28;20193;-84
2022/05/18 09:00:30;;;;;;;2.57;1.10;;;22.90;1.00;;;;;;5076703;28;20176;-83
2022/05/18 09:03:12;;;;;;;1.47;0.90;;;23.00;99.90;;;;;;5090996;28;20188;-78
2022/05/18 09:05:48;;;;;;;4.03;1.13;;;23.00;1.00;;;;;;5085731;28;20183;-80
2022/05/18 09:08:23;;;;;;;2.57;0.97;;;23.00;1.00;;;;;;5094593;28;20199;-80
2022/05/18 09:11:13;;;;;;;1.70;0.80;;;22.90;1.00;;;;;;5096989;28;20174;-78
2022/05/18 09:13:39;;;;;;;3.13;1.00;;;23.00;99.90;;;;;;5096541;28;20176;-80
2022/05/18 09:16:27;;;;;;;2.37;1.07;;;23.10;99.90;;;;;;5085937;28;20288;-79
2022/05/18 09:18:58;;;;;;;2.00;0.97;;;23.20;1.00;;;;;;5063092;28;20183;-79
2022/05/18 09:21:55;;;;;;;1.73;1.07;;;23.20;99.90;;;;;;5058295;28;20182;-84
2022/05/18 09:24:56;;;;;;;1.33;0.90;;;23.00;1.00;;;;;;5055696;28;20226;-82
2022/05/18 09:27:51;;;;;;;2.67;1.00;;;23.00;99.90;;;;;;5054310;28;20182;-82
2022/05/18 09:30:37;;;;;;;3.33;1.67;;;22.90;99.90;;;;;;5052331;28;20203;-84
2022/05/18 09:33:27;;;;;;;2.37;1.10;;;22.90;99.90;;;;;;5053875;28;20180;-79
2022/05/18 09:36:15;;;;;;;2.60;1.00;;;22.90;1.00;;;;;;5054246;28;20214;-81
2022/05/18 09:38:59;;;;;;;3.13;1.10;;;23.20;1.00;;;;;;5054197;28;20271;-83
2022/05/18 09:41:30;;;;;;;2.67;1.17;;;23.10;99.90;;;;;;5054716;28;20179;-83
2022/05/18 09:44:07;;;;;;;3.10;1.13;;;23.10;1.00;;;;;;5054273;28;20168;-83
2022/05/18 09:46:33;;;;;;;3.80;1.27;;;23.20;1.00;;;;;;5053828;28;20183;-83
2022/05/18 09:49:20;;;;;;;3.43;1.30;;;23.60;23.90;;;;;;5054817;28;20173;-85
2022/05/18 09:51:47;;;;;;;3.13;1.23;;;23.90;83.00;;;;;;5053827;28;20542;-82
2022/05/18 09:54:13;;;;;;;4.40;1.40;;;24.20;99.90;;;;;;5053922;28;20169;-82
2022/05/18 09:56:46;;;;;;;2.73;1.17;;;24.50;1.00;;;;;;5054357;28;20787;-82
2022/05/18 09:59:17;;;;;;;4.23;1.30;;;24.80;99.90;;;;;;5054135;28;20181;-79
2022/05/18 10:07:30;;;;;;;3.27;1.30;;;24.20;1.00;;;;;;5054701;28;20267;-83
2022/05/18 10:10:21;;;;;;;3.07;1.30;;;24.10;99.90;;;;;;5056937;28;20180;-79
2022/05/18 10:12:54;;;;;;;3.70;1.50;;;24.10;99.90;;;;;;5057484;28;20169;-79
2022/05/18 10:15:26;;;;;;;4.60;1.50;;;24.20;99.90;;;;;;5057067;28;20207;-85
2022/05/18 10:17:55;;;;;;;4.17;1.70;;;24.10;99.90;;;;;;5057021;28;20176;-83
2022/05/18 10:20:32;;;;;;;4.93;1.47;;;24.30;99.90;;;;;;5057124;28;20168;-84
2022/05/18 10:23:00;;;;;;;5.33;1.33;;;24.40;1.00;;;;;;5056301;28;20276;-81
2022/05/18 10:25:40;;;;;;;2.83;1.30;;;24.60;1.00;;;;;;5056973;28;20165;-84
2022/05/18 10:28:19;;;;;;;5.20;1.50;;;24.40;1.00;;;;;;5057254;28;20176;-83
2022/05/18 10:30:59;;;;;;;3.67;1.20;;;24.30;99.90;;;;;;5057369;28;20188;-80
2022/05/18 10:33:41;;;;;;;3.20;1.20;;;24.40;15.90;;;;;;5057718;28;20655;-83
2022/05/18 10:36:24;;;;;;;2.53;1.13;;;24.50;1.00;;;;;;5057226;28;20283;-83
2022/05/18 10:38:57;;;;;;;4.70;1.30;;;24.70;1.00;;;;;;5061417;28;20168;-80
2022/05/18 10:41:28;;;;;;;5.40;1.63;;;25.20;99.90;;;;;;5069519;28;20183;-81
2022/05/18 10:44:19;;;;;;;4.37;1.40;;;25.40;1.00;;;;;;5077035;28;20172;-81
2022/05/18 10:46:47;;;;;;;4.97;1.67;;;25.50;1.00;;;;;;5076489;28;20164;-82
2022/05/18 10:49:34;;;;;;;4.13;1.93;;;25.60;99.90;;;;;;5077626;28;20165;-80
2022/05/18 10:52:26;;;;;;;2.60;1.17;;;25.80;99.90;;;;;;5076879;28;20266;-83
2022/05/18 10:54:55;;;;;;;3.97;1.90;;;25.80;99.90;;;;;;5076693;28;20265;-81
2022/05/18 10:57:32;;;;;;;2.90;1.70;;;25.50;99.90;;;;;;5079025;28;20199;-84
2022/05/18 11:00:06;;;;;;;4.33;1.43;;;25.60;1.00;;;;;;5085551;28;20193;-83
2022/05/18 11:02:39;;;;;;;3.57;2.10;;;25.80;99.90;;;;;;5080074;28;20313;-85
2022/05/18 11:05:21;;;;;;;3.77;1.83;;;26.00;99.90;;;;;;5078725;28;20168;-85
2022/05/18 11:07:50;;;;;;;3.47;1.50;;;26.20;16.50;;;;;;5076371;28;20168;-84
2022/05/18 11:10:16;;;;;;;3.57;1.70;;;26.30;1.00;;;;;;5077572;28;20610;-81
2022/05/18 11:13:00;;;;;;;3.80;1.80;;;26.30;1.00;;;;;;5079585;28;20207;-82
2022/05/18 11:15:55;;;;;;;2.97;1.30;;;26.30;1.00;;;;;;5066779;28;20241;-80
2022/05/18 11:18:42;;;;;;;3.43;1.50;;;26.40;1.00;;;;;;5074682;28;20233;-80
2022/05/18 11:21:23;;;;;;;2.83;1.80;;;26.30;1.00;;;;;;5084811;28;20212;-82
2022/05/18 11:23:51;;;;;;;6.00;1.93;;;26.20;1.00;;;;;;5086820;28;20194;-82
2022/05/18 11:26:27;;;;;;;3.40;1.40;;;26.00;1.00;;;;;;5071173;28;20165;-82
2022/05/18 11:29:02;;;;;;;2.73;1.67;;;26.10;1.00;;;;;;5070678;28;20176;-83
2022/05/18 11:35:15;;;;;;;4.23;1.40;;;25.80;1.00;;;;;;5071176;28;20168;-86
2022/05/18 11:38:11;;;;;;;3.53;2.00;;;25.70;99.90;;;;;;5076493;28;20172;-86
2022/05/18 11:41:06;;;;;;;8.87;1.70;;;25.40;1.00;;;;;;5085389;28;20161;-80
2022/05/18 11:43:58;;;;;;;5.27;1.60;;;25.50;1.00;;;;;;5078641;28;20524;-79
2022/05/18 11:46:39;;;;;;;4.83;1.90;;;25.80;99.90;;;;;;5099182;28;20162;-78
2022/05/18 11:49:18;;;;;;;3.97;1.80;;;26.10;99.90;;;;;;5091002;28;20175;-80
2022/05/18 11:52:11;;;;;;;3.73;1.63;;;26.40;1.00;;;;;;5091337;28;20206;-78
2022/05/18 11:55:02;;;;;;;3.77;1.60;;;26.70;1.00;;;;;;5072088;28;20175;-80
2022/05/18 11:57:47;;;;;;;7.27;2.00;;;26.70;1.00;;;;;;5057449;28;20179;-82
2022/05/18 12:00:52;;;;;;;5.23;2.30;;;26.80;99.90;;;;;;5054578;28;20317;-80
2022/05/18 12:03:43;;;;;;;3.67;1.90;;;26.50;99.90;;;;;;5053987;28;20225;-79
2022/05/18 12:06:38;;;;;;;8.27;2.10;;;26.20;1.00;;;;;;5053130;28;20179;-81
2022/05/18 12:09:16;;;;;;;3.00;1.40;;;26.10;1.00;;;;;;5055272;28;20232;-80
2022/05/18 12:11:53;;;;;;;3.47;1.40;;;26.10;1.00;;;;;;5057423;28;20214;-85
2022/05/18 12:14:39;;;;;;;3.93;1.47;;;26.30;1.00;;;;;;5058342;28;20176;-85
2022/05/18 12:17:16;;;;;;;4.33;1.60;;;26.60;1.00;;;;;;5065716;28;20187;-85
2022/05/18 12:19:58;;;;;;;3.77;1.70;;;26.90;99.90;;;;;;5084330;28;20160;-81
2022/05/18 12:22:36;;;;;;;3.80;1.70;;;27.20;99.90;;;;;;5087441;28;20176;-84
2022/05/18 12:25:03;;;;;;;6.53;1.50;;;27.50;73.80;;;;;;5107045;28;20159;-81
2022/05/18 12:27:30;;;;;;;3.13;1.93;;;27.60;12.80;;;;;;5116341;28;20160;-79
2022/05/18 12:30:00;;;;;;;5.40;1.50;;;27.90;1.00;;;;;;5093944;28;20200;-83
2022/05/18 12:32:28;;;;;;;3.03;1.42;;;28.00;1.00;;;;;;5094172;28;20222;-82
2022/05/18 12:35:08;;;;;;;3.75;1.30;;;28.10;1.00;;;;;;5111505;28;20179;-83
2022/05/18 12:38:09;;;;;;;7.57;1.85;;;28.10;1.00;;;;;;5109021;28;20216;-82
2022/05/18 12:40:48;;;;;;;6.37;1.87;;;28.20;1.00;;;;;;5092684;28;20544;-83
2022/05/18 12:43:38;;;;;;;4.57;1.90;;;28.20;99.90;;;;;;5082473;28;20183;-82
2022/05/18 12:46:15;;;;;;;4.43;2.00;;;28.20;99.90;;;;;;5081024;28;20616;-81
2022/05/18 12:49:02;;;;;;;6.40;2.67;;;28.30;99.90;;;;;;5082694;28;20183;-84
2022/05/18 12:51:58;;;;;;;4.78;1.77;;;28.40;99.90;;;;;;5092812;28;20174;-82
2022/05/18 12:54:48;;;;;;;3.97;1.40;;;28.00;99.90;;;;;;5072917;28;20176;-83
2022/05/18 12:57:37;;;;;;;2.33;1.33;;;27.50;99.90;;;;;;5060012;28;20562;-85
2022/05/18 13:00:13;;;;;;;4.77;1.70;;;27.30;1.00;;;;;;5062016;28;20184;-82
2022/05/18 13:02:43;;;;;;;4.17;1.90;;;27.20;1.00;;;;;;5059025;28;20182;-81
2022/05/18 13:05:31;;;;;;;3.13;1.40;;;26.90;1.00;;;;;;5059760;28;20191;-85
2022/05/18 13:08:20;;;;;;;6.10;1.63;;;26.70;1.00;;;;;;5060473;28;20233;-86
2022/05/18 13:11:16;;;;;;;5.10;1.87;;;26.60;1.00;;;;;;5056338;28;20248;-83
2022/05/18 13:14:04;;;;;;;6.93;1.87;;;26.70;73.10;;;;;;5053366;28;20596;-83
2022/05/18 13:16:39;;;;;;;2.77;1.50;;;26.90;16.40;;;;;;5065062;28;20244;-82
2022/05/18 13:19:14;;;;;;;4.40;1.70;;;26.90;1.00;;;;;;5076752;28;20202;-82
2022/05/18 13:21:45;;;;;;;3.23;1.77;;;27.00;1.00;;;;;;5072267;28;20225;-85
2022/05/18 13:24:17;;;;;;;3.30;1.60;;;27.20;1.00;;;;;;5068900;28;20180;-85
2022/05/18 13:26:47;;;;;;;3.13;1.60;;;27.30;1.00;;;;;;5057284;28;20250;-83
2022/05/18 13:29:21;;;;;;;5.07;1.83;;;27.30;1.00;;;;;;5064376;28;20172;-84
2022/05/18 13:31:52;;;;;;;2.83;1.30;;;27.30;1.00;;;;;;5072693;28;20215;-83
2022/05/18 13:34:25;;;;;;;3.17;1.43;;;27.40;1.00;;;;;;5072291;28;20255;-82
2022/05/18 13:36:59;;;;;;;2.80;1.40;;;27.40;1.00;;;;;;5058869;28;20218;-82
2022/05/18 13:39:47;;;;;;;2.80;1.50;;;27.40;99.90;;;;;;5051682;28;20306;-83
2022/05/18 13:42:19;;;;;;;4.87;1.40;;;27.20;1.00;;;;;;5053189;28;20165;-84